sensor_id;sensor_type;location;lat;lon;timestamp;P1;durP1;ratioP1;P2;durP2;ratioP2
826;SDS011;395;48.132;11.608;2023-05-16T00:00:23;5.93;;;4.37;;
826;SDS011;395;48.132;11.608;2023-05-16T00:02:52;5.00;;;4.60;;
826;SDS011;395;48.132;11.608;2023-05-16T00:05:18;4.70;;;4.30;;
826;SDS011;395;48.132;11.608;2023-05-16T00:07:44;4.53;;;4.13;;
826;SDS011;395;48.132;11.608;2023-05-16T00:10:11;5.30;;;4.80;;
826;SDS011;395;48.132;11.608;2023-05-16T00:12:37;4.90;;;4.50;;
826;SDS011;395;48.132;11.608;2023-05-16T00:15:07;5.30;;;4.90;;
826;SDS011;395;48.132;11.608;2023-05-16T00:17:36;5.00;;;4.40;;
826;SDS011;395;48.132;11.608;2023-05-16T00:20:03;5.17;;;4.77;;
826;SDS011;395;48.132;11.608;2023-05-16T00:22:31;6.30;;;4.60;;
826;SDS011;395;48.132;11.608;2023-05-16T00:24:57;4.97;;;4.57;;
826;SDS011;395;48.132;11.608;2023-05-16T00:27:23;4.70;;;4.30;;
826;SDS011;395;48.132;11.608;2023-05-16T00:29:48;5.33;;;4.90;;
826;SDS011;395;48.132;11.608;2023-05-16T00:32:14;5.23;;;4.73;;
826;SDS011;395;48.132;11.608;2023-05-16T00:34:39;5.27;;;4.77;;
826;SDS011;395;48.132;11.608;2023-05-16T00:37:05;5.13;;;4.63;;
826;SDS011;395;48.132;11.608;2023-05-16T00:39:31;5.67;;;5.10;;
826;SDS011;395;48.132;11.608;2023-05-16T00:41:57;4.87;;;4.40;;
826;SDS011;395;48.132;11.608;2023-05-16T00:44:22;5.20;;;4.80;;
826;SDS011;395;48.132;11.608;2023-05-16T00:46:48;5.60;;;5.10;;
826;SDS011;395;48.132;11.608;2023-05-16T00:49:14;4.43;;;4.03;;
826;SDS011;395;48.132;11.608;2023-05-16T00:51:40;5.57;;;5.07;;
826;SDS011;395;48.132;11.608;2023-05-16T00:54:06;5.50;;;5.00;;
826;SDS011;395;48.132;11.608;2023-05-16T00:56:32;5.20;;;4.80;;
826;SDS011;395;48.132;11.608;2023-05-16T00:58:58;5.07;;;4.57;;
826;SDS011;395;48.132;11.608;2023-05-16T01:01:25;4.90;;;4.40;;
826;SDS011;395;48.132;11.608;2023-05-16T01:03:52;5.40;;;4.90;;
826;SDS011;395;48.132;11.608;2023-05-16T01:06:18;5.10;;;4.60;;
826;SDS011;395;48.132;11.608;2023-05-16T01:08:44;6.73;;;5.43;;
826;SDS011;395;48.132;11.608;2023-05-16T01:16:34;4.77;;;4.37;;
826;SDS011;395;48.132;11.608;2023-05-16T01:19:19;5.40;;;4.90;;
826;SDS011;395;48.132;11.608;2023-05-16T01:25:20;5.80;;;5.20;;
826;SDS011;395;48.132;11.608;2023-05-16T01:27:46;6.30;;;5.70;;
826;SDS011;395;48.132;11.608;2023-05-16T01:30:13;5.83;;;5.23;;
826;SDS011;395;48.132;11.608;2023-05-16T01:32:43;6.10;;;5.50;;
826;SDS011;395;48.132;11.608;2023-05-16T01:35:10;5.37;;;4.97;;
826;SDS011;395;48.132;11.608;2023-05-16T01:37:41;5.30;;;4.67;;
826;SDS011;395;48.132;11.608;2023-05-16T01:43:07;5.67;;;5.10;;
826;SDS011;395;48.132;11.608;2023-05-16T01:45:38;5.47;;;4.97;;
826;SDS011;395;48.132;11.608;2023-05-16T01:48:11;6.50;;;5.90;;
826;SDS011;395;48.132;11.608;2023-05-16T01:50:45;6.80;;;5.77;;
826;SDS011;395;48.132;11.608;2023-05-16T01:53:18;6.40;;;5.90;;
826;SDS011;395;48.132;11.608;2023-05-16T01:55:48;5.83;;;5.23;;
826;SDS011;395;48.132;11.608;2023-05-16T01:58:17;6.23;;;5.70;;
826;SDS011;395;48.132;11.608;2023-05-16T02:00:45;6.23;;;5.63;;
826;SDS011;395;48.132;11.608;2023-05-16T02:03:11;6.83;;;6.13;;
826;SDS011;395;48.132;11.608;2023-05-16T02:05:36;6.03;;;5.53;;
826;SDS011;395;48.132;11.608;2023-05-16T02:08:03;7.50;;;6.33;;
826;SDS011;395;48.132;11.608;2023-05-16T02:10:29;6.57;;;5.87;;
826;SDS011;395;48.132;11.608;2023-05-16T02:12:55;6.10;;;5.47;;
826;SDS011;395;48.132;11.608;2023-05-16T02:15:22;6.03;;;5.53;;
826;SDS011;395;48.132;11.608;2023-05-16T02:17:47;6.67;;;6.07;;
826;SDS011;395;48.132;11.608;2023-05-16T02:20:13;6.80;;;6.17;;
826;SDS011;395;48.132;11.608;2023-05-16T02:22:39;7.37;;;6.67;;
826;SDS011;395;48.132;11.608;2023-05-16T02:25:06;6.13;;;5.53;;
826;SDS011;395;48.132;11.608;2023-05-16T02:27:32;5.83;;;5.30;;
826;SDS011;395;48.132;11.608;2023-05-16T02:29:58;6.10;;;5.60;;
826;SDS011;395;48.132;11.608;2023-05-16T02:32:23;6.97;;;6.23;;
826;SDS011;395;48.132;11.608;2023-05-16T02:34:50;6.43;;;5.83;;
826;SDS011;395;48.132;11.608;2023-05-16T02:37:15;6.67;;;5.93;;
826;SDS011;395;48.132;11.608;2023-05-16T02:39:41;6.47;;;5.87;;
826;SDS011;395;48.132;11.608;2023-05-16T02:42:07;6.43;;;5.87;;
826;SDS011;395;48.132;11.608;2023-05-16T02:44:32;5.97;;;5.43;;
826;SDS011;395;48.132;11.608;2023-05-16T02:46:58;7.10;;;6.40;;
826;SDS011;395;48.132;11.608;2023-05-16T02:49:24;7.40;;;6.50;;
826;SDS011;395;48.132;11.608;2023-05-16T02:51:49;6.83;;;6.13;;
826;SDS011;395;48.132;11.608;2023-05-16T02:54:15;7.20;;;6.50;;
826;SDS011;395;48.132;11.608;2023-05-16T02:56:41;7.00;;;6.37;;
826;SDS011;395;48.132;11.608;2023-05-16T02:59:07;6.87;;;6.00;;
826;SDS011;395;48.132;11.608;2023-05-16T03:01:33;7.70;;;6.90;;
826;SDS011;395;48.132;11.608;2023-05-16T03:03:59;7.40;;;6.27;;
826;SDS011;395;48.132;11.608;2023-05-16T03:06:24;6.63;;;6.03;;
826;SDS011;395;48.132;11.608;2023-05-16T03:08:50;8.07;;;6.30;;
826;SDS011;395;48.132;11.608;2023-05-16T03:11:16;7.17;;;6.47;;
826;SDS011;395;48.132;11.608;2023-05-16T03:13:45;9.03;;;7.60;;
826;SDS011;395;48.132;11.608;2023-05-16T03:16:11;7.50;;;6.73;;
826;SDS011;395;48.132;11.608;2023-05-16T03:18:37;7.60;;;6.90;;
826;SDS011;395;48.132;11.608;2023-05-16T03:21:02;7.97;;;7.27;;
826;SDS011;395;48.132;11.608;2023-05-16T03:23:28;6.90;;;6.30;;
826;SDS011;395;48.132;11.608;2023-05-16T03:25:54;7.60;;;6.90;;
826;SDS011;395;48.132;11.608;2023-05-16T03:28:20;7.80;;;6.80;;
826;SDS011;395;48.132;11.608;2023-05-16T03:30:45;6.90;;;6.30;;
826;SDS011;395;48.132;11.608;2023-05-16T03:33:11;8.40;;;7.60;;
826;SDS011;395;48.132;11.608;2023-05-16T03:35:37;6.43;;;5.83;;
826;SDS011;395;48.132;11.608;2023-05-16T03:38:04;7.90;;;7.03;;
826;SDS011;395;48.132;11.608;2023-05-16T03:40:29;8.40;;;7.47;;
826;SDS011;395;48.132;11.608;2023-05-16T03:42:55;8.10;;;7.30;;
826;SDS011;395;48.132;11.608;2023-05-16T03:45:21;8.10;;;7.07;;
826;SDS011;395;48.132;11.608;2023-05-16T03:47:50;8.20;;;7.40;;
826;SDS011;395;48.132;11.608;2023-05-16T03:50:15;8.37;;;7.57;;
826;SDS011;395;48.132;11.608;2023-05-16T03:52:41;8.00;;;7.20;;
826;SDS011;395;48.132;11.608;2023-05-16T03:55:08;7.53;;;6.83;;
826;SDS011;395;48.132;11.608;2023-05-16T03:57:34;11.40;;;7.10;;
826;SDS011;395;48.132;11.608;2023-05-16T04:00:02;8.17;;;7.37;;
826;SDS011;395;48.132;11.608;2023-05-16T04:02:30;8.03;;;7.23;;
826;SDS011;395;48.132;11.608;2023-05-16T04:04:56;9.10;;;8.20;;
826;SDS011;395;48.132;11.608;2023-05-16T04:07:22;14.20;;;8.17;;
826;SDS011;395;48.132;11.608;2023-05-16T04:09:47;9.20;;;8.30;;
826;SDS011;395;48.132;11.608;2023-05-16T04:12:13;9.20;;;8.30;;
826;SDS011;395;48.132;11.608;2023-05-16T04:14:38;8.17;;;7.13;;
826;SDS011;395;48.132;11.608;2023-05-16T04:17:04;10.00;;;9.00;;
826;SDS011;395;48.132;11.608;2023-05-16T04:19:30;11.13;;;8.53;;
826;SDS011;395;48.132;11.608;2023-05-16T04:21:55;8.10;;;7.20;;
826;SDS011;395;48.132;11.608;2023-05-16T04:24:21;9.67;;;8.70;;
826;SDS011;395;48.132;11.608;2023-05-16T04:26:50;8.83;;;7.97;;
826;SDS011;395;48.132;11.608;2023-05-16T04:29:16;8.90;;;8.00;;
826;SDS011;395;48.132;11.608;2023-05-16T04:31:42;7.80;;;7.00;;
826;SDS011;395;48.132;11.608;2023-05-16T04:34:07;9.63;;;8.63;;
826;SDS011;395;48.132;11.608;2023-05-16T04:36:33;8.73;;;7.93;;
826;SDS011;395;48.132;11.608;2023-05-16T04:38:59;10.93;;;8.37;;
826;SDS011;395;48.132;11.608;2023-05-16T04:41:25;9.37;;;8.47;;
826;SDS011;395;48.132;11.608;2023-05-16T04:43:50;9.00;;;8.07;;
826;SDS011;395;48.132;11.608;2023-05-16T04:46:17;9.57;;;8.47;;
826;SDS011;395;48.132;11.608;2023-05-16T04:48:43;9.80;;;8.83;;
826;SDS011;395;48.132;11.608;2023-05-16T04:51:08;9.30;;;8.40;;
826;SDS011;395;48.132;11.608;2023-05-16T04:53:34;9.80;;;8.77;;
826;SDS011;395;48.132;11.608;2023-05-16T04:55:59;9.80;;;8.80;;
826;SDS011;395;48.132;11.608;2023-05-16T04:58:25;10.17;;;9.10;;
826;SDS011;395;48.132;11.608;2023-05-16T05:00:51;10.63;;;9.47;;
826;SDS011;395;48.132;11.608;2023-05-16T05:03:17;10.40;;;9.30;;
826;SDS011;395;48.132;11.608;2023-05-16T05:05:42;9.67;;;8.10;;
826;SDS011;395;48.132;11.608;2023-05-16T05:08:08;10.83;;;9.73;;
826;SDS011;395;48.132;11.608;2023-05-16T05:10:34;9.30;;;8.30;;
826;SDS011;395;48.132;11.608;2023-05-16T05:13:00;13.70;;;10.10;;
826;SDS011;395;48.132;11.608;2023-05-16T05:15:26;12.60;;;9.43;;
826;SDS011;395;48.132;11.608;2023-05-16T05:17:52;11.17;;;9.67;;
826;SDS011;395;48.132;11.608;2023-05-16T05:20:18;10.63;;;9.57;;
826;SDS011;395;48.132;11.608;2023-05-16T05:22:43;11.90;;;10.63;;
826;SDS011;395;48.132;11.608;2023-05-16T05:25:09;10.60;;;9.50;;
826;SDS011;395;48.132;11.608;2023-05-16T05:27:34;12.60;;;10.73;;
826;SDS011;395;48.132;11.608;2023-05-16T05:30:00;11.53;;;10.33;;
826;SDS011;395;48.132;11.608;2023-05-16T05:32:27;16.13;;;11.03;;
826;SDS011;395;48.132;11.608;2023-05-16T05:34:53;12.93;;;11.00;;
826;SDS011;395;48.132;11.608;2023-05-16T05:37:19;12.97;;;11.57;;
826;SDS011;395;48.132;11.608;2023-05-16T05:39:45;15.30;;;11.77;;
826;SDS011;395;48.132;11.608;2023-05-16T05:42:10;14.50;;;11.70;;
826;SDS011;395;48.132;11.608;2023-05-16T05:44:36;12.90;;;11.10;;
826;SDS011;395;48.132;11.608;2023-05-16T05:47:03;12.20;;;9.80;;
826;SDS011;395;48.132;11.608;2023-05-16T05:49:30;12.57;;;11.20;;
826;SDS011;395;48.132;11.608;2023-05-16T05:51:56;13.90;;;11.40;;
826;SDS011;395;48.132;11.608;2023-05-16T05:54:21;13.00;;;11.10;;
826;SDS011;395;48.132;11.608;2023-05-16T05:56:47;14.30;;;11.20;;
826;SDS011;395;48.132;11.608;2023-05-16T05:59:13;13.10;;;11.70;;
826;SDS011;395;48.132;11.608;2023-05-16T06:01:39;11.93;;;10.80;;
826;SDS011;395;48.132;11.608;2023-05-16T06:04:05;12.70;;;11.37;;
826;SDS011;395;48.132;11.608;2023-05-16T06:06:31;17.50;;;11.87;;
826;SDS011;395;48.132;11.608;2023-05-16T06:08:59;13.53;;;11.20;;
826;SDS011;395;48.132;11.608;2023-05-16T06:11:25;11.97;;;10.70;;
826;SDS011;395;48.132;11.608;2023-05-16T06:13:51;11.63;;;10.40;;
826;SDS011;395;48.132;11.608;2023-05-16T06:16:17;12.70;;;11.23;;
826;SDS011;395;48.132;11.608;2023-05-16T06:18:42;11.70;;;10.43;;
826;SDS011;395;48.132;11.608;2023-05-16T06:21:08;12.90;;;11.60;;
826;SDS011;395;48.132;11.608;2023-05-16T06:23:34;15.33;;;11.63;;
826;SDS011;395;48.132;11.608;2023-05-16T06:26:00;11.57;;;10.30;;
826;SDS011;395;48.132;11.608;2023-05-16T06:28:27;13.03;;;11.53;;
826;SDS011;395;48.132;11.608;2023-05-16T06:30:52;13.37;;;10.90;;
826;SDS011;395;48.132;11.608;2023-05-16T06:33:18;12.10;;;10.90;;
826;SDS011;395;48.132;11.608;2023-05-16T06:35:44;13.27;;;10.73;;
826;SDS011;395;48.132;11.608;2023-05-16T06:38:10;14.90;;;11.17;;
826;SDS011;395;48.132;11.608;2023-05-16T06:40:36;13.43;;;11.13;;
826;SDS011;395;48.132;11.608;2023-05-16T06:43:01;14.53;;;10.90;;
826;SDS011;395;48.132;11.608;2023-05-16T06:45:27;13.93;;;11.47;;
826;SDS011;395;48.132;11.608;2023-05-16T06:47:53;12.87;;;11.20;;
826;SDS011;395;48.132;11.608;2023-05-16T06:50:20;12.97;;;10.97;;
826;SDS011;395;48.132;11.608;2023-05-16T06:52:46;12.40;;;11.00;;
826;SDS011;395;48.132;11.608;2023-05-16T06:55:12;12.80;;;11.00;;
826;SDS011;395;48.132;11.608;2023-05-16T06:57:37;13.90;;;11.47;;
826;SDS011;395;48.132;11.608;2023-05-16T07:00:03;14.10;;;11.57;;
826;SDS011;395;48.132;11.608;2023-05-16T07:02:29;12.10;;;10.87;;
826;SDS011;395;48.132;11.608;2023-05-16T07:04:55;11.57;;;10.43;;
826;SDS011;395;48.132;11.608;2023-05-16T07:07:21;12.77;;;11.43;;
826;SDS011;395;48.132;11.608;2023-05-16T07:09:47;13.53;;;11.47;;
826;SDS011;395;48.132;11.608;2023-05-16T07:12:12;12.80;;;11.40;;
826;SDS011;395;48.132;11.608;2023-05-16T07:14:38;13.20;;;11.87;;
826;SDS011;395;48.132;11.608;2023-05-16T07:17:04;12.50;;;11.30;;
826;SDS011;395;48.132;11.608;2023-05-16T07:19:30;13.97;;;12.57;;
826;SDS011;395;48.132;11.608;2023-05-16T07:21:56;13.23;;;11.87;;
826;SDS011;395;48.132;11.608;2023-05-16T07:24:21;13.40;;;12.00;;
826;SDS011;395;48.132;11.608;2023-05-16T07:26:47;13.57;;;12.13;;
826;SDS011;395;48.132;11.608;2023-05-16T07:29:13;13.17;;;11.77;;
826;SDS011;395;48.132;11.608;2023-05-16T07:31:39;17.50;;;13.20;;
826;SDS011;395;48.132;11.608;2023-05-16T07:34:05;14.37;;;12.97;;
826;SDS011;395;48.132;11.608;2023-05-16T07:36:31;13.03;;;11.67;;
826;SDS011;395;48.132;11.608;2023-05-16T07:38:57;12.50;;;10.80;;
826;SDS011;395;48.132;11.608;2023-05-16T07:41:23;11.60;;;10.43;;
826;SDS011;395;48.132;11.608;2023-05-16T07:43:49;14.40;;;12.90;;
826;SDS011;395;48.132;11.608;2023-05-16T07:46:15;13.10;;;11.70;;
826;SDS011;395;48.132;11.608;2023-05-16T07:48:41;12.50;;;11.20;;
826;SDS011;395;48.132;11.608;2023-05-16T07:51:06;14.53;;;12.10;;
826;SDS011;395;48.132;11.608;2023-05-16T07:53:32;16.37;;;12.90;;
826;SDS011;395;48.132;11.608;2023-05-16T07:55:58;12.47;;;11.23;;
826;SDS011;395;48.132;11.608;2023-05-16T07:58:23;16.63;;;12.67;;
826;SDS011;395;48.132;11.608;2023-05-16T08:00:49;12.50;;;11.30;;
826;SDS011;395;48.132;11.608;2023-05-16T08:03:15;14.40;;;11.50;;
826;SDS011;395;48.132;11.608;2023-05-16T08:05:40;13.13;;;11.83;;
826;SDS011;395;48.132;11.608;2023-05-16T08:08:06;14.53;;;11.63;;
826;SDS011;395;48.132;11.608;2023-05-16T08:10:32;14.97;;;13.57;;
826;SDS011;395;48.132;11.608;2023-05-16T08:12:58;13.93;;;12.43;;
826;SDS011;395;48.132;11.608;2023-05-16T08:15:25;13.40;;;11.97;;
826;SDS011;395;48.132;11.608;2023-05-16T08:17:53;15.87;;;13.63;;
826;SDS011;395;48.132;11.608;2023-05-16T08:20:21;15.63;;;12.70;;
826;SDS011;395;48.132;11.608;2023-05-16T08:22:47;14.30;;;12.80;;
826;SDS011;395;48.132;11.608;2023-05-16T08:25:12;15.60;;;14.00;;
826;SDS011;395;48.132;11.608;2023-05-16T08:27:38;12.57;;;11.37;;
826;SDS011;395;48.132;11.608;2023-05-16T08:30:04;15.03;;;13.50;;
826;SDS011;395;48.132;11.608;2023-05-16T08:32:30;13.60;;;12.10;;
826;SDS011;395;48.132;11.608;2023-05-16T08:34:56;16.70;;;13.07;;
826;SDS011;395;48.132;11.608;2023-05-16T08:37:21;13.40;;;12.00;;
826;SDS011;395;48.132;11.608;2023-05-16T08:39:47;17.37;;;12.60;;
826;SDS011;395;48.132;11.608;2023-05-16T08:42:12;15.90;;;14.30;;
826;SDS011;395;48.132;11.608;2023-05-16T08:44:38;14.80;;;13.30;;
826;SDS011;395;48.132;11.608;2023-05-16T08:47:26;15.80;;;13.47;;
826;SDS011;395;48.132;11.608;2023-05-16T08:49:54;14.17;;;12.70;;
826;SDS011;395;48.132;11.608;2023-05-16T08:52:22;15.40;;;13.33;;
826;SDS011;395;48.132;11.608;2023-05-16T08:54:58;19.70;;;14.87;;
826;SDS011;395;48.132;11.608;2023-05-16T08:57:32;15.50;;;13.90;;
826;SDS011;395;48.132;11.608;2023-05-16T08:59:58;16.70;;;13.23;;
826;SDS011;395;48.132;11.608;2023-05-16T09:02:24;14.50;;;13.10;;
826;SDS011;395;48.132;11.608;2023-05-16T09:04:51;12.97;;;11.77;;
826;SDS011;395;48.132;11.608;2023-05-16T09:07:18;14.00;;;12.63;;
826;SDS011;395;48.132;11.608;2023-05-16T09:09:44;13.90;;;12.33;;
826;SDS011;395;48.132;11.608;2023-05-16T09:12:10;14.13;;;12.70;;
826;SDS011;395;48.132;11.608;2023-05-16T09:14:35;13.10;;;11.77;;
826;SDS011;395;48.132;11.608;2023-05-16T09:17:02;14.23;;;12.70;;
826;SDS011;395;48.132;11.608;2023-05-16T09:19:36;15.20;;;13.07;;
826;SDS011;395;48.132;11.608;2023-05-16T09:22:03;14.90;;;13.40;;
826;SDS011;395;48.132;11.608;2023-05-16T09:24:29;15.13;;;13.53;;
826;SDS011;395;48.132;11.608;2023-05-16T09:26:54;14.77;;;13.37;;
826;SDS011;395;48.132;11.608;2023-05-16T09:29:20;14.97;;;13.37;;
826;SDS011;395;48.132;11.608;2023-05-16T09:31:48;15.30;;;12.90;;
826;SDS011;395;48.132;11.608;2023-05-16T09:34:14;14.30;;;12.70;;
826;SDS011;395;48.132;11.608;2023-05-16T09:36:39;14.43;;;13.03;;
826;SDS011;395;48.132;11.608;2023-05-16T09:39:06;16.20;;;13.43;;
826;SDS011;395;48.132;11.608;2023-05-16T09:41:32;14.37;;;12.87;;
826;SDS011;395;48.132;11.608;2023-05-16T09:43:59;14.30;;;12.90;;
826;SDS011;395;48.132;11.608;2023-05-16T09:46:29;14.73;;;13.33;;
826;SDS011;395;48.132;11.608;2023-05-16T09:48:57;16.37;;;13.70;;
826;SDS011;395;48.132;11.608;2023-05-16T09:51:23;15.03;;;13.63;;
826;SDS011;395;48.132;11.608;2023-05-16T09:53:49;13.37;;;11.93;;
826;SDS011;395;48.132;11.608;2023-05-16T09:56:14;15.67;;;14.10;;
826;SDS011;395;48.132;11.608;2023-05-16T09:58:41;13.23;;;12.03;;
826;SDS011;395;48.132;11.608;2023-05-16T10:01:08;14.53;;;13.17;;
826;SDS011;395;48.132;11.608;2023-05-16T10:03:35;15.83;;;14.33;;
826;SDS011;395;48.132;11.608;2023-05-16T10:06:03;15.73;;;14.23;;
826;SDS011;395;48.132;11.608;2023-05-16T10:08:33;16.73;;;13.67;;
826;SDS011;395;48.132;11.608;2023-05-16T10:11:05;14.83;;;13.23;;
826;SDS011;395;48.132;11.608;2023-05-16T10:13:32;14.40;;;13.00;;
826;SDS011;395;48.132;11.608;2023-05-16T10:15:59;15.20;;;13.90;;
826;SDS011;395;48.132;11.608;2023-05-16T10:18:31;15.57;;;14.10;;
826;SDS011;395;48.132;11.608;2023-05-16T10:21:01;15.30;;;13.70;;
826;SDS011;395;48.132;11.608;2023-05-16T10:23:30;15.80;;;14.30;;
826;SDS011;395;48.132;11.608;2023-05-16T10:25:57;15.33;;;13.83;;
826;SDS011;395;48.132;11.608;2023-05-16T10:28:24;16.77;;;14.97;;
826;SDS011;395;48.132;11.608;2023-05-16T10:30:51;17.30;;;15.60;;
826;SDS011;395;48.132;11.608;2023-05-16T10:33:18;16.80;;;15.20;;
826;SDS011;395;48.132;11.608;2023-05-16T10:35:44;14.80;;;13.40;;
826;SDS011;395;48.132;11.608;2023-05-16T10:38:11;17.13;;;14.63;;
826;SDS011;395;48.132;11.608;2023-05-16T10:40:39;21.20;;;18.43;;
826;SDS011;395;48.132;11.608;2023-05-16T10:43:05;20.60;;;17.80;;
826;SDS011;395;48.132;11.608;2023-05-16T10:45:32;18.13;;;16.33;;
826;SDS011;395;48.132;11.608;2023-05-16T10:47:59;19.63;;;15.23;;
826;SDS011;395;48.132;11.608;2023-05-16T10:53:13;18.13;;;16.33;;
826;SDS011;395;48.132;11.608;2023-05-16T10:55:48;17.03;;;15.27;;
826;SDS011;395;48.132;11.608;2023-05-16T10:58:22;18.07;;;16.30;;
826;SDS011;395;48.132;11.608;2023-05-16T11:09:24;16.23;;;14.63;;
826;SDS011;395;48.132;11.608;2023-05-16T11:16:49;15.40;;;13.80;;
826;SDS011;395;48.132;11.608;2023-05-16T11:24:48;14.23;;;12.73;;
826;SDS011;395;48.132;11.608;2023-05-16T11:27:18;16.57;;;14.87;;
826;SDS011;395;48.132;11.608;2023-05-16T11:29:57;17.63;;;15.93;;
826;SDS011;395;48.132;11.608;2023-05-16T11:32:35;16.47;;;14.60;;
826;SDS011;395;48.132;11.608;2023-05-16T11:35:03;15.13;;;13.73;;
826;SDS011;395;48.132;11.608;2023-05-16T11:37:32;18.13;;;13.30;;
826;SDS011;395;48.132;11.608;2023-05-16T11:40:00;13.57;;;12.37;;
826;SDS011;395;48.132;11.608;2023-05-16T11:42:39;13.63;;;12.33;;
826;SDS011;395;48.132;11.608;2023-05-16T11:45:09;12.73;;;11.40;;
826;SDS011;395;48.132;11.608;2023-05-16T11:47:39;15.43;;;13.93;;
826;SDS011;395;48.132;11.608;2023-05-16T11:50:05;15.37;;;13.77;;
826;SDS011;395;48.132;11.608;2023-05-16T11:52:33;14.97;;;13.67;;
826;SDS011;395;48.132;11.608;2023-05-16T11:55:00;17.70;;;15.90;;
826;SDS011;395;48.132;11.608;2023-05-16T11:57:26;17.50;;;15.70;;
826;SDS011;395;48.132;11.608;2023-05-16T11:59:52;18.10;;;15.80;;
826;SDS011;395;48.132;11.608;2023-05-16T12:02:18;17.00;;;15.30;;
826;SDS011;395;48.132;11.608;2023-05-16T12:04:47;17.80;;;16.00;;
826;SDS011;395;48.132;11.608;2023-05-16T12:07:14;18.63;;;16.73;;
826;SDS011;395;48.132;11.608;2023-05-16T12:09:40;17.17;;;15.47;;
826;SDS011;395;48.132;11.608;2023-05-16T12:12:06;16.63;;;14.90;;
826;SDS011;395;48.132;11.608;2023-05-16T12:14:31;17.90;;;15.90;;
826;SDS011;395;48.132;11.608;2023-05-16T12:16:57;19.77;;;17.87;;
826;SDS011;395;48.132;11.608;2023-05-16T12:19:23;20.17;;;17.00;;
826;SDS011;395;48.132;11.608;2023-05-16T12:21:52;18.70;;;16.73;;
826;SDS011;395;48.132;11.608;2023-05-16T12:24:18;18.57;;;16.70;;
826;SDS011;395;48.132;11.608;2023-05-16T12:26:45;20.13;;;17.53;;
826;SDS011;395;48.132;11.608;2023-05-16T12:29:10;18.13;;;16.47;;
826;SDS011;395;48.132;11.608;2023-05-16T12:31:38;18.63;;;16.93;;
826;SDS011;395;48.132;11.608;2023-05-16T12:34:04;19.63;;;17.60;;
826;SDS011;395;48.132;11.608;2023-05-16T12:36:38;20.60;;;18.60;;
826;SDS011;395;48.132;11.608;2023-05-16T12:39:04;18.87;;;16.97;;
826;SDS011;395;48.132;11.608;2023-05-16T12:41:30;19.50;;;17.53;;
826;SDS011;395;48.132;11.608;2023-05-16T12:44:06;22.70;;;18.77;;
826;SDS011;395;48.132;11.608;2023-05-16T12:46:44;21.00;;;18.80;;
826;SDS011;395;48.132;11.608;2023-05-16T12:49:12;20.20;;;18.20;;
826;SDS011;395;48.132;11.608;2023-05-16T12:51:38;18.33;;;16.53;;
826;SDS011;395;48.132;11.608;2023-05-16T12:54:10;19.60;;;17.70;;
826;SDS011;395;48.132;11.608;2023-05-16T12:56:40;21.37;;;19.10;;
826;SDS011;395;48.132;11.608;2023-05-16T12:59:06;18.20;;;16.37;;
826;SDS011;395;48.132;11.608;2023-05-16T13:01:33;19.80;;;17.70;;
826;SDS011;395;48.132;11.608;2023-05-16T13:03:59;19.10;;;17.20;;
826;SDS011;395;48.132;11.608;2023-05-16T13:06:25;19.40;;;17.60;;
826;SDS011;395;48.132;11.608;2023-05-16T13:08:52;19.60;;;17.70;;
826;SDS011;395;48.132;11.608;2023-05-16T13:11:18;21.80;;;19.60;;
826;SDS011;395;48.132;11.608;2023-05-16T13:13:43;22.90;;;20.53;;
826;SDS011;395;48.132;11.608;2023-05-16T13:16:09;20.13;;;18.23;;
826;SDS011;395;48.132;11.608;2023-05-16T13:18:35;21.77;;;19.57;;
826;SDS011;395;48.132;11.608;2023-05-16T13:21:01;22.30;;;20.10;;
826;SDS011;395;48.132;11.608;2023-05-16T13:23:28;23.40;;;19.20;;
826;SDS011;395;48.132;11.608;2023-05-16T13:25:54;18.67;;;16.87;;
826;SDS011;395;48.132;11.608;2023-05-16T13:28:20;21.33;;;18.37;;
826;SDS011;395;48.132;11.608;2023-05-16T13:30:46;20.47;;;18.37;;
826;SDS011;395;48.132;11.608;2023-05-16T13:33:12;21.50;;;19.33;;
826;SDS011;395;48.132;11.608;2023-05-16T13:35:37;20.83;;;18.67;;
826;SDS011;395;48.132;11.608;2023-05-16T13:38:03;21.57;;;19.20;;
826;SDS011;395;48.132;11.608;2023-05-16T13:40:29;14.03;;;12.63;;
826;SDS011;395;48.132;11.608;2023-05-16T13:42:55;10.40;;;9.27;;
826;SDS011;395;48.132;11.608;2023-05-16T13:45:21;9.83;;;8.80;;
826;SDS011;395;48.132;11.608;2023-05-16T13:47:47;10.37;;;9.27;;
826;SDS011;395;48.132;11.608;2023-05-16T13:50:12;14.03;;;9.00;;
826;SDS011;395;48.132;11.608;2023-05-16T13:52:38;8.40;;;7.60;;
826;SDS011;395;48.132;11.608;2023-05-16T13:55:04;7.67;;;6.97;;
826;SDS011;395;48.132;11.608;2023-05-16T13:57:32;8.67;;;7.87;;
826;SDS011;395;48.132;11.608;2023-05-16T13:59:58;8.67;;;7.80;;
826;SDS011;395;48.132;11.608;2023-05-16T14:02:24;8.00;;;7.33;;
826;SDS011;395;48.132;11.608;2023-05-16T14:04:50;7.70;;;7.00;;
826;SDS011;395;48.132;11.608;2023-05-16T14:07:16;8.50;;;7.33;;
826;SDS011;395;48.132;11.608;2023-05-16T14:09:42;9.30;;;8.40;;
826;SDS011;395;48.132;11.608;2023-05-16T14:12:09;10.40;;;8.40;;
826;SDS011;395;48.132;11.608;2023-05-16T14:14:35;9.50;;;8.60;;
826;SDS011;395;48.132;11.608;2023-05-16T14:17:01;9.57;;;8.60;;
826;SDS011;395;48.132;11.608;2023-05-16T14:19:28;9.10;;;8.30;;
826;SDS011;395;48.132;11.608;2023-05-16T14:21:54;9.27;;;8.37;;
826;SDS011;395;48.132;11.608;2023-05-16T14:24:20;9.97;;;8.43;;
826;SDS011;395;48.132;11.608;2023-05-16T14:26:48;10.10;;;9.20;;
826;SDS011;395;48.132;11.608;2023-05-16T14:29:18;9.50;;;8.53;;
826;SDS011;395;48.132;11.608;2023-05-16T14:31:44;9.20;;;8.30;;
826;SDS011;395;48.132;11.608;2023-05-16T14:34:11;10.20;;;9.07;;
826;SDS011;395;48.132;11.608;2023-05-16T14:36:36;10.57;;;9.47;;
826;SDS011;395;48.132;11.608;2023-05-16T14:39:02;11.03;;;9.57;;
826;SDS011;395;48.132;11.608;2023-05-16T14:41:28;10.37;;;9.07;;
826;SDS011;395;48.132;11.608;2023-05-16T14:43:54;10.30;;;9.20;;
826;SDS011;395;48.132;11.608;2023-05-16T14:46:20;10.30;;;9.30;;
826;SDS011;395;48.132;11.608;2023-05-16T14:48:45;10.83;;;9.73;;
826;SDS011;395;48.132;11.608;2023-05-16T14:51:11;11.27;;;9.30;;
826;SDS011;395;48.132;11.608;2023-05-16T14:53:37;9.20;;;8.27;;
826;SDS011;395;48.132;11.608;2023-05-16T14:56:03;10.20;;;8.90;;
826;SDS011;395;48.132;11.608;2023-05-16T14:58:29;10.80;;;9.70;;
826;SDS011;395;48.132;11.608;2023-05-16T15:00:55;10.50;;;9.50;;
826;SDS011;395;48.132;11.608;2023-05-16T15:03:21;10.10;;;9.10;;
826;SDS011;395;48.132;11.608;2023-05-16T15:05:46;9.37;;;8.47;;
826;SDS011;395;48.132;11.608;2023-05-16T15:08:12;9.17;;;8.30;;
826;SDS011;395;48.132;11.608;2023-05-16T15:10:38;12.87;;;9.33;;
826;SDS011;395;48.132;11.608;2023-05-16T15:13:04;10.13;;;9.17;;
826;SDS011;395;48.132;11.608;2023-05-16T15:15:30;8.87;;;8.17;;
826;SDS011;395;48.132;11.608;2023-05-16T15:17:57;10.63;;;9.67;;
826;SDS011;395;48.132;11.608;2023-05-16T15:20:22;11.17;;;9.97;;
826;SDS011;395;48.132;11.608;2023-05-16T15:22:50;10.73;;;9.60;;
826;SDS011;395;48.132;11.608;2023-05-16T15:25:15;11.50;;;9.43;;
826;SDS011;395;48.132;11.608;2023-05-16T15:27:41;10.60;;;9.60;;
826;SDS011;395;48.132;11.608;2023-05-16T15:30:08;10.50;;;9.50;;
826;SDS011;395;48.132;11.608;2023-05-16T15:32:34;10.27;;;9.33;;
826;SDS011;395;48.132;11.608;2023-05-16T15:35:00;10.70;;;9.60;;
826;SDS011;395;48.132;11.608;2023-05-16T15:37:26;10.97;;;9.97;;
826;SDS011;395;48.132;11.608;2023-05-16T15:39:51;10.80;;;9.90;;
826;SDS011;395;48.132;11.608;2023-05-16T15:42:17;14.17;;;10.40;;